Time;durP1;ratioP1;P1;durP2;ratioP2;P2;SDS_P1;SDS_P2;PMS_P1;PMS_P2;Temp;Humidity;BMP_temperature;BMP_pressure;BME280_temperature;BME280_humidity;BME280_pressure;Samples;Min_cycle;Max_cycle;Signal;HPM_P1;HPM_P2
2022/01/21 00:02:16;;;;;;;15.80;8.25;;;;;;;;;;143737;617;46021;-55
2022/01/21 00:04:43;;;;;;;17.50;7.53;;;;;;;;;;143735;601;46020;-55
2022/01/21 00:07:10;;;;;;;17.20;7.22;;;;;;;;;;143732;587;46021;-54
2022/01/21 00:09:37;;;;;;;14.00;7.10;;;;;;;;;;143736;579;45021;-54
2022/01/21 00:12:05;;;;;;;20.65;7.68;;;;;;;;;;143737;569;46020;-54
2022/01/21 00:14:32;;;;;;;15.15;7.15;;;;;;;;;;143733;590;47020;-54
2022/01/21 00:16:59;;;;;;;12.13;6.05;;;;;;;;;;143732;602;46011;-54
2022/01/21 00:19:26;;;;;;;10.43;6.00;;;;;;;;;;143733;625;48020;-53
2022/01/21 00:30:09;;;;;;;8.57;5.68;;;;;;;;;;143733;616;46022;-53
2022/01/21 00:30:25;;;;;;;10.13;6.28;;;;;;;;;;143737;600;45026;-54
2022/01/21 00:32:53;;;;;;;17.00;6.65;;;;;;;;;;143737;609;46021;-53
2022/01/21 00:35:21;;;;;;;10.07;5.90;;;;;;;;;;143733;585;46022;-54
2022/01/21 00:37:49;;;;;;;11.05;6.90;;;;;;;;;;143733;605;46010;-53
2022/01/21 00:40:22;;;;;;;10.27;6.78;;;;;;;;;;143737;612;45021;-54
2022/01/21 00:45:36;;;;;;;11.02;6.65;;;;;;;;;;143732;604;46010;-54
2022/01/21 00:48:04;;;;;;;14.80;6.53;;;;;;;;;;143730;614;46010;-54
2022/01/21 00:50:34;;;;;;;12.40;6.20;;;;;;;;;;143737;713;45020;-54
2022/01/21 00:53:01;;;;;;;13.10;6.10;;;;;;;;;;143738;583;46020;-54
2022/01/21 00:55:28;;;;;;;15.32;6.43;;;;;;;;;;143733;597;46021;-54
2022/01/21 00:57:55;;;;;;;10.10;6.40;;;;;;;;;;143733;564;46010;-54
2022/01/21 01:00:22;;;;;;;11.32;6.40;;;;;;;;;;143736;580;45021;-54
2022/01/21 01:02:50;;;;;;;10.75;6.62;;;;;;;;;;143736;612;46021;-54
2022/01/21 01:05:17;;;;;;;11.43;6.97;;;;;;;;;;143734;591;46022;-53
2022/01/21 01:07:43;;;;;;;12.77;7.10;;;;;;;;;;143732;577;46011;-54
2022/01/21 01:10:17;;;;;;;11.82;6.93;;;;;;;;;;143736;614;45021;-54
2022/01/21 01:19:52;;;;;;;11.70;6.72;;;;;;;;;;143735;571;46020;-53
2022/01/21 01:21:15;;;;;;;8.98;6.35;;;;;;;;;;143732;585;46905;-54
2022/01/21 01:24:04;;;;;;;9.98;6.25;;;;;;;;;;143737;577;46021;-54
2022/01/21 01:29:19;;;;;;;12.82;7.25;;;;;;;;;;143761;583;45020;-54
2022/01/21 01:31:46;;;;;;;10.32;6.05;;;;;;;;;;143765;598;44021;-54
2022/01/21 01:34:14;;;;;;;13.30;7.10;;;;;;;;;;143764;624;45020;-54
2022/01/21 01:36:46;;;;;;;16.02;7.45;;;;;;;;;;143761;578;45020;-54
2022/01/21 01:39:29;;;;;;;15.93;7.85;;;;;;;;;;143760;578;45010;-55
2022/01/21 01:42:37;;;;;;;12.00;7.75;;;;;;;;;;143765;634;44908;-54
2022/01/21 01:50:38;;;;;;;18.83;8.05;;;;;;;;;;143759;579;45010;-54
2022/01/21 01:53:07;;;;;;;15.10;7.53;;;;;;;;;;143763;571;44909;-54
2022/01/21 01:55:35;;;;;;;14.20;8.05;;;;;;;;;;143766;583;45020;-54
2022/01/21 01:58:03;;;;;;;14.87;7.60;;;;;;;;;;143762;572;45020;-54
2022/01/21 02:00:30;;;;;;;21.20;8.95;;;;;;;;;;143759;616;45021;-54
2022/01/21 02:03:09;;;;;;;14.05;8.30;;;;;;;;;;143765;569;44908;-54
2022/01/21 02:05:36;;;;;;;10.48;7.25;;;;;;;;;;143764;605;45020;-53
2022/01/21 02:08:04;;;;;;;11.65;6.65;;;;;;;;;;143761;653;45022;-53
2022/01/21 02:10:31;;;;;;;15.43;7.28;;;;;;;;;;143759;572;45918;-54
2022/01/21 02:13:05;;;;;;;12.57;8.32;;;;;;;;;;143758;656;44909;-54
2022/01/21 02:15:35;;;;;;;10.32;6.37;;;;;;;;;;143765;576;45021;-54
2022/01/21 02:23:32;;;;;;;12.00;8.32;;;;;;;;;;143761;609;45012;-54
2022/01/21 02:25:59;;;;;;;12.20;7.37;;;;;;;;;;143764;571;45020;-53
2022/01/21 02:28:26;;;;;;;14.73;9.15;;;;;;;;;;143744;647;46020;-55
2022/01/21 02:30:58;;;;;;;14.68;8.50;;;;;;;;;;143731;599;46917;-55
2022/01/21 02:33:26;;;;;;;12.75;8.50;;;;;;;;;;143737;615;45020;-54
2022/01/21 02:35:53;;;;;;;15.30;9.02;;;;;;;;;;143737;587;46020;-54
2022/01/21 02:38:20;;;;;;;15.57;9.65;;;;;;;;;;143734;571;47021;-55
2022/01/21 02:40:47;;;;;;;17.48;9.35;;;;;;;;;;143733;579;46010;-54
2022/01/21 02:43:15;;;;;;;22.83;10.85;;;;;;;;;;143736;630;45020;-54
2022/01/21 02:45:46;;;;;;;19.83;11.45;;;;;;;;;;143738;606;46021;-54
2022/01/21 02:48:13;;;;;;;13.40;9.48;;;;;;;;;;143734;569;46020;-54
2022/01/21 02:50:40;;;;;;;20.35;10.63;;;;;;;;;;143733;612;46010;-55
2022/01/21 02:53:37;;;;;;;19.62;10.82;;;;;;;;;;143732;573;46020;-55
2022/01/21 02:56:05;;;;;;;16.08;11.75;;;;;;;;;;143736;576;46020;-53
2022/01/21 02:58:33;;;;;;;17.20;12.07;;;;;;;;;;143737;564;46020;-54
2022/01/21 03:01:00;;;;;;;17.50;11.32;;;;;;;;;;143732;579;46021;-54
2022/01/21 03:03:27;;;;;;;25.35;12.07;;;;;;;;;;143735;600;45909;-54
2022/01/21 03:05:54;;;;;;;17.87;10.80;;;;;;;;;;143737;637;46020;-54
2022/01/21 03:08:21;;;;;;;18.73;10.95;;;;;;;;;;143733;590;46022;-53
2022/01/21 03:10:48;;;;;;;14.77;10.30;;;;;;;;;;143734;634;46010;-54
2022/01/21 03:13:15;;;;;;;17.15;11.10;;;;;;;;;;143736;624;45020;-54
2022/01/21 03:15:42;;;;;;;14.57;10.35;;;;;;;;;;143740;649;46021;-54
2022/01/21 03:18:09;;;;;;;14.48;9.70;;;;;;;;;;143734;599;46022;-55
2022/01/21 03:20:37;;;;;;;12.77;7.60;;;;;;;;;;143735;574;46010;-55
2022/01/21 03:23:04;;;;;;;14.80;8.82;;;;;;;;;;143737;565;45021;-54
2022/01/21 03:25:31;;;;;;;20.27;10.57;;;;;;;;;;143739;601;46020;-55
2022/01/21 03:27:57;;;;;;;14.93;9.00;;;;;;;;;;143735;572;46020;-53
2022/01/21 03:30:25;;;;;;;17.12;10.02;;;;;;;;;;143733;592;46010;-54
2022/01/21 03:32:51;;;;;;;16.45;10.00;;;;;;;;;;143735;622;45021;-54
2022/01/21 03:35:18;;;;;;;14.65;9.88;;;;;;;;;;143738;569;46020;-53
2022/01/21 03:37:48;;;;;;;14.50;7.90;;;;;;;;;;143734;592;46021;-54
2022/01/21 03:40:15;;;;;;;15.18;10.90;;;;;;;;;;143733;592;46010;-54
2022/01/21 03:42:42;;;;;;;19.08;10.48;;;;;;;;;;143735;607;45020;-54
2022/01/21 03:45:11;;;;;;;14.40;8.43;;;;;;;;;;143738;638;46021;-54
2022/01/21 03:47:39;;;;;;;21.40;10.82;;;;;;;;;;143735;626;46020;-54
2022/01/21 03:50:31;;;;;;;18.08;8.93;;;;;;;;;;143733;577;46010;-54
2022/01/21 03:52:56;;;;;;;16.92;9.90;;;;;;;;;;143734;567;46021;-55
2022/01/21 03:55:23;;;;;;;17.62;9.88;;;;;;;;;;143738;622;46020;-54
2022/01/21 03:57:55;;;;;;;12.98;9.65;;;;;;;;;;143735;585;46020;-54
2022/01/21 04:00:25;;;;;;;22.45;12.23;;;;;;;;;;143734;593;46010;-54
2022/01/21 04:02:52;;;;;;;21.83;12.35;;;;;;;;;;143736;570;45020;-54
2022/01/21 04:05:20;;;;;;;25.70;15.25;;;;;;;;;;143739;623;46020;-55
2022/01/21 04:07:49;;;;;;;16.95;11.90;;;;;;;;;;143736;569;46021;-53
2022/01/21 04:10:25;;;;;;;27.87;16.45;;;;;;;;;;143731;627;46915;-54
2022/01/21 04:12:52;;;;;;;31.73;15.45;;;;;;;;;;143738;585;45020;-54
2022/01/21 04:15:19;;;;;;;20.90;13.48;;;;;;;;;;143739;602;46021;-54
2022/01/21 04:17:46;;;;;;;20.33;13.50;;;;;;;;;;143733;572;47020;-54
2022/01/21 04:20:14;;;;;;;22.20;13.65;;;;;;;;;;143732;577;46010;-53
2022/01/21 04:22:44;;;;;;;23.50;15.15;;;;;;;;;;143741;597;45021;-54
2022/01/21 04:25:11;;;;;;;21.08;13.02;;;;;;;;;;143739;593;46020;-54
2022/01/21 04:27:38;;;;;;;21.08;11.85;;;;;;;;;;143738;570;46020;-54
2022/01/21 04:30:15;;;;;;;26.30;13.32;;;;;;;;;;143736;583;46010;-54
2022/01/21 04:32:42;;;;;;;14.60;11.23;;;;;;;;;;143738;580;45020;-54
2022/01/21 04:35:10;;;;;;;26.90;16.40;;;;;;;;;;143738;632;46020;-54
2022/01/21 04:37:42;;;;;;;20.77;15.27;;;;;;;;;;143736;577;46021;-53
2022/01/21 04:40:13;;;;;;;22.15;12.82;;;;;;;;;;143732;598;46915;-54
2022/01/21 04:48:13;;;;;;;18.87;12.18;;;;;;;;;;143734;675;46010;-54
2022/01/21 04:50:51;;;;;;;23.67;13.82;;;;;;;;;;143733;596;46011;-53
2022/01/21 04:53:18;;;;;;;17.67;10.20;;;;;;;;;;143737;582;45021;-53
2022/01/21 04:55:45;;;;;;;21.25;12.40;;;;;;;;;;143739;581;46020;-55
2022/01/21 04:58:13;;;;;;;18.27;11.48;;;;;;;;;;143736;564;46020;-54
2022/01/21 05:00:40;;;;;;;16.02;10.30;;;;;;;;;;143734;624;46010;-53
2022/01/21 05:03:10;;;;;;;21.87;15.70;;;;;;;;;;143738;569;45020;-54
2022/01/21 05:05:37;;;;;;;30.67;20.00;;;;;;;;;;143738;587;46021;-55
2022/01/21 05:08:07;;;;;;;66.53;52.95;;;;;;;;;;143735;578;46020;-56
2022/01/21 05:10:36;;;;;;;52.70;43.53;;;;;;;;;;143734;580;46010;-55
2022/01/21 05:13:04;;;;;;;42.58;31.73;;;;;;;;;;143737;583;45021;-55
2022/01/21 05:18:17;;;;;;;63.13;54.25;;;;;;;;;;143733;601;46010;-54
2022/01/21 05:20:44;;;;;;;41.97;36.70;;;;;;;;;;143736;625;46011;-54
2022/01/21 05:23:11;;;;;;;42.53;36.25;;;;;;;;;;143738;570;45021;-54
2022/01/21 05:25:38;;;;;;;73.28;60.95;;;;;;;;;;143738;678;46020;-54
2022/01/21 05:28:05;;;;;;;65.80;54.72;;;;;;;;;;143736;596;46021;-53
2022/01/21 05:30:33;;;;;;;66.85;49.92;;;;;;;;;;143734;566;46010;-53
2022/01/21 05:33:00;;;;;;;47.38;38.85;;;;;;;;;;143737;587;45020;-54
2022/01/21 05:35:27;;;;;;;52.75;46.92;;;;;;;;;;143736;586;46020;-54
2022/01/21 05:37:54;;;;;;;51.17;41.33;;;;;;;;;;143736;600;46021;-55
2022/01/21 05:40:22;;;;;;;44.50;34.97;;;;;;;;;;143733;565;46010;-55
2022/01/21 05:42:49;;;;;;;41.08;29.37;;;;;;;;;;143736;583;45020;-55
2022/01/21 05:48:01;;;;;;;19.37;14.65;;;;;;;;;;143736;635;46010;-55
2022/01/21 05:50:28;;;;;;;24.95;13.38;;;;;;;;;;143733;593;46010;-54
2022/01/21 05:52:56;;;;;;;20.77;13.82;;;;;;;;;;143738;577;45021;-54
2022/01/21 05:55:23;;;;;;;20.60;12.52;;;;;;;;;;143739;576;46020;-54
2022/01/21 05:57:50;;;;;;;21.60;13.90;;;;;;;;;;143737;581;46021;-54
2022/01/21 06:00:18;;;;;;;33.53;19.35;;;;;;;;;;143733;564;46020;-54
2022/01/21 06:02:45;;;;;;;31.45;19.95;;;;;;;;;;143737;591;45020;-54
2022/01/21 06:05:14;;;;;;;21.83;16.40;;;;;;;;;;143740;622;46020;-54
2022/01/21 06:07:44;;;;;;;23.75;12.98;;;;;;;;;;143738;587;46020;-53
2022/01/21 06:10:11;;;;;;;22.02;12.27;;;;;;;;;;143733;569;46010;-54
2022/01/21 06:12:38;;;;;;;20.73;11.05;;;;;;;;;;143736;669;45021;-54
2022/01/21 06:15:06;;;;;;;15.48;10.77;;;;;;;;;;143738;612;46021;-54
2022/01/21 06:17:41;;;;;;;18.40;11.15;;;;;;;;;;143736;564;46020;-55
2022/01/21 06:20:09;;;;;;;21.55;11.38;;;;;;;;;;143734;583;46011;-55
2022/01/21 06:22:37;;;;;;;14.43;10.27;;;;;;;;;;143738;565;45021;-55
2022/01/21 06:25:04;;;;;;;16.75;10.40;;;;;;;;;;143739;631;46020;-54
2022/01/21 06:27:33;;;;;;;15.20;10.73;;;;;;;;;;143734;579;47021;-56
2022/01/21 06:30:00;;;;;;;13.18;10.10;;;;;;;;;;143734;564;46010;-55
2022/01/21 06:32:27;;;;;;;15.60;10.15;;;;;;;;;;143736;587;46020;-54
2022/01/21 06:34:54;;;;;;;24.40;11.00;;;;;;;;;;143740;603;46020;-54
2022/01/21 06:37:21;;;;;;;21.83;10.82;;;;;;;;;;143735;564;46023;-54
2022/01/21 06:39:48;;;;;;;19.55;10.13;;;;;;;;;;143734;592;46019;-54
2022/01/21 06:42:23;;;;;;;16.40;9.20;;;;;;;;;;143738;605;45020;-54
2022/01/21 06:44:50;;;;;;;12.90;9.20;;;;;;;;;;143738;605;46021;-54
2022/01/21 06:47:18;;;;;;;16.80;9.48;;;;;;;;;;143737;616;46020;-55
2022/01/21 06:49:46;;;;;;;15.65;10.60;;;;;;;;;;143735;598;46010;-54
2022/01/21 06:52:14;;;;;;;17.40;10.35;;;;;;;;;;143738;612;45021;-54
2022/01/21 06:54:41;;;;;;;14.18;9.80;;;;;;;;;;143738;626;46020;-54
2022/01/21 06:57:11;;;;;;;19.02;9.35;;;;;;;;;;143736;583;46021;-54
2022/01/21 06:59:38;;;;;;;19.25;10.10;;;;;;;;;;143734;588;46010;-56
2022/01/21 07:02:05;;;;;;;17.62;10.63;;;;;;;;;;143737;594;45020;-55
2022/01/21 07:04:33;;;;;;;13.43;8.32;;;;;;;;;;143737;601;46021;-55
2022/01/21 07:07:04;;;;;;;16.27;10.00;;;;;;;;;;143737;605;46020;-55
2022/01/21 07:09:32;;;;;;;19.40;9.90;;;;;;;;;;143735;607;46010;-55
2022/01/21 07:11:59;;;;;;;19.92;9.52;;;;;;;;;;143737;636;45021;-55
2022/01/21 07:14:25;;;;;;;15.73;8.45;;;;;;;;;;143738;605;46021;-54
2022/01/21 07:16:58;;;;;;;13.70;9.10;;;;;;;;;;143738;566;46020;-55
2022/01/21 07:19:25;;;;;;;17.30;10.00;;;;;;;;;;143736;627;46011;-54
2022/01/21 07:21:52;;;;;;;19.77;10.20;;;;;;;;;;143737;564;45021;-54
2022/01/21 07:24:19;;;;;;;22.83;9.40;;;;;;;;;;143740;569;46020;-54
2022/01/21 07:26:46;;;;;;;13.85;9.32;;;;;;;;;;143737;647;46020;-53
2022/01/21 07:29:13;;;;;;;15.15;8.55;;;;;;;;;;143733;574;46010;-53
2022/01/21 07:31:40;;;;;;;12.77;8.75;;;;;;;;;;143737;575;45020;-53
2022/01/21 07:34:10;;;;;;;14.80;8.45;;;;;;;;;;143738;631;46020;-53
2022/01/21 07:36:43;;;;;;;17.37;9.15;;;;;;;;;;143737;629;46021;-55
2022/01/21 07:39:09;;;;;;;16.40;9.35;;;;;;;;;;143735;577;46010;-54
2022/01/21 07:41:36;;;;;;;16.80;8.85;;;;;;;;;;143738;643;45020;-54
2022/01/21 07:44:06;;;;;;;18.05;8.57;;;;;;;;;;143739;594;46021;-54
2022/01/21 07:46:33;;;;;;;18.75;8.95;;;;;;;;;;143736;608;46020;-54
2022/01/21 07:48:59;;;;;;;17.17;9.85;;;;;;;;;;143734;569;46010;-54
2022/01/21 07:51:27;;;;;;;15.15;9.65;;;;;;;;;;143738;678;45021;-53
2022/01/21 07:53:54;;;;;;;21.55;9.40;;;;;;;;;;143738;652;46020;-54
2022/01/21 07:56:21;;;;;;;24.40;10.05;;;;;;;;;;143738;580;46020;-53
2022/01/21 07:58:48;;;;;;;17.35;9.10;;;;;;;;;;143734;649;46010;-53
2022/01/21 08:01:15;;;;;;;12.50;7.22;;;;;;;;;;143738;592;45020;-53
2022/01/21 08:03:42;;;;;;;11.05;6.62;;;;;;;;;;143736;591;46020;-55
2022/01/21 08:06:09;;;;;;;10.50;7.28;;;;;;;;;;143737;569;46010;-54
2022/01/21 08:08:36;;;;;;;11.30;5.90;;;;;;;;;;143734;567;46010;-54
2022/01/21 08:11:03;;;;;;;8.52;5.55;;;;;;;;;;143736;569;46020;-55
2022/01/21 08:13:30;;;;;;;9.25;5.72;;;;;;;;;;143738;587;46021;-55
2022/01/21 08:15:59;;;;;;;12.52;7.95;;;;;;;;;;143735;585;46020;-54
2022/01/21 08:18:26;;;;;;;13.13;7.22;;;;;;;;;;143734;587;46010;-55
2022/01/21 08:20:54;;;;;;;10.50;6.12;;;;;;;;;;143736;642;46015;-54
2022/01/21 08:23:21;;;;;;;13.88;6.55;;;;;;;;;;143739;585;46020;-54
2022/01/21 08:25:48;;;;;;;17.05;7.62;;;;;;;;;;143736;799;46020;-53
2022/01/21 08:28:18;;;;;;;17.45;8.23;;;;;;;;;;143734;751;46010;-54
2022/01/21 08:30:45;;;;;;;17.98;7.00;;;;;;;;;;143738;595;45020;-54
2022/01/21 08:33:12;;;;;;;11.57;6.22;;;;;;;;;;143737;614;46020;-54
2022/01/21 08:35:39;;;;;;;12.10;5.12;;;;;;;;;;143735;570;46022;-54
2022/01/21 08:38:09;;;;;;;16.98;6.85;;;;;;;;;;143734;591;46010;-54
2022/01/21 08:40:36;;;;;;;13.38;7.22;;;;;;;;;;143738;614;45020;-54
2022/01/21 08:51:51;;;;;;;7.62;4.50;;;;;;;;;;143734;607;47020;-60
2022/01/21 08:54:19;;;;;;;5.50;3.35;;;;;;;;;;143735;573;47012;-62
2022/01/21 08:56:48;;;;;;;6.32;3.45;;;;;;;;;;143733;633;47022;-62
2022/01/21 08:59:16;;;;;;;13.68;5.22;;;;;;;;;;143734;611;46010;-61
2022/01/21 09:01:48;;;;;;;8.50;5.62;;;;;;;;;;143732;632;45020;-61
2022/01/21 09:04:19;;;;;;;9.50;5.50;;;;;;;;;;143737;593;46020;-61
2022/01/21 09:06:46;;;;;;;9.45;5.93;;;;;;;;;;143732;581;47021;-61
2022/01/21 09:09:14;;;;;;;8.68;5.90;;;;;;;;;;143734;600;46010;-61
2022/01/21 09:11:41;;;;;;;10.60;5.57;;;;;;;;;;143735;607;45908;-60
2022/01/21 09:14:09;;;;;;;9.10;5.55;;;;;;;;;;143737;590;46012;-60
2022/01/21 09:16:36;;;;;;;11.48;6.00;;;;;;;;;;143732;564;47022;-61
2022/01/21 09:19:06;;;;;;;8.70;4.95;;;;;;;;;;143733;575;46011;-61
2022/01/21 09:21:37;;;;;;;6.87;5.25;;;;;;;;;;143735;598;45021;-61
2022/01/21 09:24:05;;;;;;;7.05;4.32;;;;;;;;;;143738;591;46012;-62
2022/01/21 09:26:33;;;;;;;4.28;2.90;;;;;;;;;;143730;582;47021;-61
2022/01/21 09:29:03;;;;;;;11.68;6.70;;;;;;;;;;143731;566;47010;-61
2022/01/21 09:31:30;;;;;;;11.80;7.03;;;;;;;;;;143734;569;45020;-62
2022/01/21 09:33:58;;;;;;;12.93;5.15;;;;;;;;;;143736;676;46013;-61
2022/01/21 09:36:24;;;;;;;5.18;2.17;;;;;;;;;;143734;586;46014;-61
2022/01/21 09:38:56;;;;;;;3.55;1.95;;;;;;;;;;143734;573;46027;-62
2022/01/21 09:41:24;;;;;;;4.22;1.92;;;;;;;;;;143732;602;45021;-62
2022/01/21 09:43:53;;;;;;;3.35;2.62;;;;;;;;;;143737;584;46021;-61
2022/01/21 09:46:36;;;;;;;5.05;3.20;;;;;;;;;;143733;595;47020;-62
2022/01/21 09:52:12;;;;;;;2.30;1.80;;;;;;;;;;143735;587;47020;-62
2022/01/21 09:54:48;;;;;;;2.70;1.55;;;;;;;;;;143737;631;46012;-62
2022/01/21 09:57:18;;;;;;;2.17;1.52;;;;;;;;;;143731;612;47021;-63
2022/01/21 09:59:47;;;;;;;2.58;1.55;;;;;;;;;;143734;596;47010;-62
2022/01/21 10:02:21;;;;;;;1.60;1.25;;;;;;;;;;143735;565;45020;-63
2022/01/21 10:04:51;;;;;;;6.10;2.33;;;;;;;;;;143735;577;46021;-63
2022/01/21 10:07:21;;;;;;;5.65;1.42;;;;;;;;;;143735;593;47020;-62
2022/01/21 10:09:50;;;;;;;1.98;1.83;;;;;;;;;;143734;659;46010;-62
2022/01/21 10:12:17;;;;;;;5.40;1.60;;;;;;;;;;143736;619;45021;-62
2022/01/21 10:14:47;;;;;;;4.50;1.23;;;;;;;;;;143737;588;46020;-61
2022/01/21 10:17:17;;;;;;;1.42;1.08;;;;;;;;;;143732;594;47020;-63
2022/01/21 10:19:45;;;;;;;3.10;2.80;;;;;;;;;;143734;621;46011;-62
2022/01/21 10:22:17;;;;;;;2.17;1.62;;;;;;;;;;143733;668;45020;-61
2022/01/21 10:24:58;;;;;;;3.00;2.25;;;;;;;;;;143736;588;46020;-61
2022/01/21 10:27:36;;;;;;;6.35;4.30;;;;;;;;;;143734;574;47020;-61
2022/01/21 10:30:22;;;;;;;7.12;4.72;;;;;;;;;;143732;609;47010;-61
2022/01/21 10:32:50;;;;;;;9.27;6.30;;;;;;;;;;143733;570;46020;-63
2022/01/21 10:35:32;;;;;;;10.10;6.12;;;;;;;;;;143736;615;46013;-61
2022/01/21 10:38:18;;;;;;;13.13;6.22;;;;;;;;;;143730;565;48022;-61
2022/01/21 10:40:45;;;;;;;8.88;5.32;;;;;;;;;;143734;570;46011;-61
2022/01/21 10:43:18;;;;;;;7.85;4.30;;;;;;;;;;143734;579;45021;-61
2022/01/21 10:45:57;;;;;;;8.50;5.35;;;;;;;;;;143736;584;46020;-62
2022/01/21 10:48:25;;;;;;;6.70;5.30;;;;;;;;;;143734;640;47022;-63
2022/01/21 10:51:17;;;;;;;7.72;5.03;;;;;;;;;;143734;569;46010;-61
2022/01/21 10:53:44;;;;;;;9.07;5.25;;;;;;;;;;143732;628;45909;-61
2022/01/21 10:56:15;;;;;;;10.52;6.18;;;;;;;;;;143737;573;46013;-62
2022/01/21 10:58:45;;;;;;;7.68;5.22;;;;;;;;;;143732;555;47020;-61
2022/01/21 11:01:17;;;;;;;9.80;5.60;;;;;;;;;;143733;585;46010;-61
2022/01/21 11:04:10;;;;;;;8.10;5.55;;;;;;;;;;143732;895;45910;-61
2022/01/21 11:06:49;;;;;;;10.27;5.78;;;;;;;;;;143736;622;46029;-60
2022/01/21 11:09:24;;;;;;;10.93;5.28;;;;;;;;;;143733;577;47020;-62
2022/01/21 11:12:15;;;;;;;8.40;5.00;;;;;;;;;;143733;611;46029;-61
2022/01/21 11:15:05;;;;;;;5.90;4.03;;;;;;;;;;143733;595;45022;-61
2022/01/21 11:17:36;;;;;;;11.00;4.57;;;;;;;;;;143737;623;46013;-61
2022/01/21 11:20:15;;;;;;;6.47;4.85;;;;;;;;;;143732;611;47023;-61
2022/01/21 11:22:59;;;;;;;13.65;5.90;;;;;;;;;;143734;733;46022;-61
2022/01/21 11:25:46;;;;;;;8.13;5.23;;;;;;;;;;143732;572;45021;-61
2022/01/21 11:28:24;;;;;;;8.75;6.22;;;;;;;;;;143738;611;46012;-61
2022/01/21 11:30:52;;;;;;;12.05;7.40;;;;;;;;;;143727;982;47020;-61
2022/01/21 11:33:20;;;;;;;8.27;5.78;;;;;;;;;;143733;573;46011;-62
2022/01/21 11:35:49;;;;;;;8.57;5.57;;;;;;;;;;143733;602;45021;-61
2022/01/21 11:38:18;;;;;;;9.68;6.37;;;;;;;;;;143736;772;46012;-61
2022/01/21 11:40:47;;;;;;;9.95;6.45;;;;;;;;;;143733;564;47020;-60
2022/01/21 11:43:14;;;;;;;14.93;6.28;;;;;;;;;;143734;622;46010;-60
2022/01/21 11:48:50;;;;;;;10.15;6.03;;;;;;;;;;143738;634;46018;-60
2022/01/21 11:51:32;;;;;;;11.50;5.85;;;;;;;;;;143731;635;47048;-60
2022/01/21 11:54:27;;;;;;;9.98;6.18;;;;;;;;;;143734;564;46026;-61
2022/01/21 11:57:02;;;;;;;9.77;6.75;;;;;;;;;;143735;598;45021;-61
2022/01/21 12:00:07;;;;;;;8.00;5.87;;;;;;;;;;143738;569;46020;-61
2022/01/21 12:02:37;;;;;;;11.43;6.45;;;;;;;;;;143734;617;47021;-60
2022/01/21 12:05:09;;;;;;;10.50;6.45;;;;;;;;;;143733;595;46010;-62
2022/01/21 12:07:48;;;;;;;11.75;6.50;;;;;;;;;;143734;589;45020;-61
2022/01/21 12:10:43;;;;;;;9.43;7.30;;;;;;;;;;143736;587;46021;-61
2022/01/21 12:13:20;;;;;;;9.48;6.32;;;;;;;;;;143732;631;47025;-61
2022/01/21 12:21:43;;;;;;;11.75;8.02;;;;;;;;;;143739;643;46020;-61
2022/01/21 12:24:12;;;;;;;13.27;8.80;;;;;;;;;;143733;596;47020;-61
2022/01/21 12:26:58;;;;;;;18.48;13.23;;;;;;;;;;143733;627;46011;-61
2022/01/21 12:29:28;;;;;;;17.30;8.88;;;;;;;;;;143756;570;44908;-60
2022/01/21 12:32:03;;;;;;;15.60;7.43;;;;;;;;;;143762;608;45020;-61
2022/01/21 12:35:11;;;;;;;19.25;8.55;;;;;;;;;;143760;639;46021;-60
2022/01/21 12:41:40;;;;;;;17.33;10.95;;;;;;;;;;143761;625;46021;-61
2022/01/21 12:44:09;;;;;;;19.48;11.35;;;;;;;;;;143759;569;45020;-60
2022/01/21 12:46:42;;;;;;;24.37;10.85;;;;;;;;;;143754;621;46020;-61
2022/01/21 12:49:36;;;;;;;21.90;13.77;;;;;;;;;;143754;589;45919;-61
2022/01/21 12:57:33;;;;;;;11.25;7.20;;;;;;;;;;143765;607;44911;-61
2022/01/21 13:00:09;;;;;;;9.60;6.55;;;;;;;;;;143760;579;45918;-60
2022/01/21 13:02:37;;;;;;;11.38;7.20;;;;;;;;;;143762;611;44911;-60
2022/01/21 13:05:32;;;;;;;11.60;7.75;;;;;;;;;;143765;614;45013;-62
2022/01/21 13:08:31;;;;;;;14.65;9.40;;;;;;;;;;143762;612;46020;-61
2022/01/21 13:10:58;;;;;;;11.68;8.00;;;;;;;;;;143758;588;46010;-61
2022/01/21 13:16:28;;;;;;;16.62;10.00;;;;;;;;;;143759;571;45030;-61
2022/01/21 13:19:04;;;;;;;15.93;8.52;;;;;;;;;;143754;616;46021;-61
2022/01/21 13:21:33;;;;;;;12.20;6.47;;;;;;;;;;143758;585;45916;-61
2022/01/21 13:24:10;;;;;;;8.55;4.97;;;;;;;;;;143761;586;44908;-61
2022/01/21 13:26:42;;;;;;;14.18;4.87;;;;;;;;;;143753;589;45021;-61
2022/01/21 13:29:12;;;;;;;8.07;4.50;;;;;;;;;;143756;566;47020;-62
2022/01/21 13:32:05;;;;;;;9.63;4.53;;;;;;;;;;143759;567;46946;-62
2022/01/21 13:34:42;;;;;;;6.10;3.75;;;;;;;;;;143763;661;44023;-61
2022/01/21 13:37:11;;;;;;;7.90;3.90;;;;;;;;;;143765;570;45020;-60
2022/01/21 13:39:41;;;;;;;8.88;3.60;;;;;;;;;;143755;564;46020;-61
2022/01/21 13:42:20;;;;;;;5.57;3.72;;;;;;;;;;143760;590;45917;-62
2022/01/21 13:45:08;;;;;;;10.23;3.85;;;;;;;;;;143764;627;44020;-61
2022/01/21 13:47:45;;;;;;;15.65;4.78;;;;;;;;;;143765;570;45013;-62
2022/01/21 13:50:22;;;;;;;4.68;3.55;;;;;;;;;;143759;643;46020;-62
2022/01/21 13:52:55;;;;;;;5.85;3.70;;;;;;;;;;143761;598;46010;-60
2022/01/21 13:55:41;;;;;;;8.57;3.65;;;;;;;;;;143761;583;45908;-62
2022/01/21 13:58:13;;;;;;;6.80;3.62;;;;;;;;;;143766;581;45012;-61
2022/01/21 14:01:08;;;;;;;7.20;3.60;;;;;;;;;;143760;576;46020;-61
2022/01/21 14:03:37;;;;;;;7.05;4.05;;;;;;;;;;143759;665;46010;-61
2022/01/21 14:06:22;;;;;;;12.13;4.28;;;;;;;;;;143757;661;44910;-61
2022/01/21 14:08:51;;;;;;;8.88;3.53;;;;;;;;;;143763;719;45014;-61
2022/01/21 14:11:35;;;;;;;8.85;4.35;;;;;;;;;;143760;586;46022;-62
2022/01/21 14:14:07;;;;;;;10.40;4.32;;;;;;;;;;143760;579;45918;-62
2022/01/21 14:16:42;;;;;;;10.25;4.50;;;;;;;;;;143757;579;45020;-61
2022/01/21 14:19:12;;;;;;;10.45;4.30;;;;;;;;;;143764;703;45021;-61
2022/01/21 14:21:40;;;;;;;9.77;4.78;;;;;;;;;;143760;634;46020;-60
2022/01/21 14:24:10;;;;;;;11.07;4.68;;;;;;;;;;143758;658;46011;-61
2022/01/21 14:26:40;;;;;;;12.98;4.93;;;;;;;;;;143764;564;44911;-62
2022/01/21 14:29:07;;;;;;;7.12;4.55;;;;;;;;;;143738;566;46012;-61
2022/01/21 14:31:48;;;;;;;8.90;4.35;;;;;;;;;;143733;590;47022;-61
2022/01/21 14:34:27;;;;;;;15.25;3.70;;;;;;;;;;143734;608;46010;-61
2022/01/21 14:37:23;;;;;;;9.40;5.07;;;;;;;;;;143733;577;45020;-61
2022/01/21 14:39:55;;;;;;;12.32;5.07;;;;;;;;;;143736;646;47020;-62
2022/01/21 14:42:25;;;;;;;10.95;5.37;;;;;;;;;;143732;658;47020;-62
2022/01/21 14:44:55;;;;;;;10.57;4.47;;;;;;;;;;143735;628;46010;-61
2022/01/21 14:47:31;;;;;;;11.35;5.00;;;;;;;;;;143735;674;45021;-61
2022/01/21 14:50:22;;;;;;;22.17;4.80;;;;;;;;;;143736;582;46012;-61
2022/01/21 14:52:53;;;;;;;9.63;4.28;;;;;;;;;;143733;575;47024;-61
2022/01/21 14:55:25;;;;;;;12.37;4.43;;;;;;;;;;143734;591;46011;-62
2022/01/21 14:58:26;;;;;;;12.20;4.15;;;;;;;;;;143734;569;45020;-61
2022/01/21 15:01:04;;;;;;;8.25;3.87;;;;;;;;;;143737;593;46012;-61
2022/01/21 15:03:36;;;;;;;6.05;4.03;;;;;;;;;;143734;567;47021;-62
2022/01/21 15:06:12;;;;;;;8.60;3.70;;;;;;;;;;143733;628;46010;-62
2022/01/21 15:08:51;;;;;;;;;;;;;;;;;;143740;980;45020;-62
2022/01/21 15:14:25;;;;;;;8.90;3.60;;;;;;;;;;143733;634;45022;-61
2022/01/21 15:17:09;;;;;;;8.10;3.58;;;;;;;;;;143734;617;46010;-63
2022/01/21 15:19:39;;;;;;;10.48;3.70;;;;;;;;;;143735;613;45021;-63
2022/01/21 15:22:11;;;;;;;10.15;4.68;;;;;;;;;;143737;623;46010;-64
2022/01/21 15:24:40;;;;;;;11.90;4.25;;;;;;;;;;143733;592;47021;-63
2022/01/21 15:27:07;;;;;;;8.63;3.97;;;;;;;;;;143734;612;47010;-65
2022/01/21 15:29:35;;;;;;;8.95;3.92;;;;;;;;;;143735;595;45020;-63
2022/01/21 15:32:05;;;;;;;11.85;4.57;;;;;;;;;;143738;608;46011;-64
2022/01/21 15:34:34;;;;;;;8.75;4.15;;;;;;;;;;143733;570;47023;-63
2022/01/21 15:37:01;;;;;;;11.27;4.15;;;;;;;;;;143734;602;47020;-62
2022/01/21 15:39:28;;;;;;;10.65;4.00;;;;;;;;;;143734;629;45021;-63
2022/01/21 15:41:56;;;;;;;11.38;4.47;;;;;;;;;;143737;566;46010;-63
2022/01/21 15:44:26;;;;;;;12.45;4.35;;;;;;;;;;143732;578;47022;-62
2022/01/21 15:46:53;;;;;;;9.77;4.53;;;;;;;;;;143734;576;46010;-62
2022/01/21 15:49:20;;;;;;;10.07;4.70;;;;;;;;;;143733;596;46018;-63
2022/01/21 15:51:48;;;;;;;8.02;3.37;;;;;;;;;;143738;580;46010;-63
2022/01/21 15:54:16;;;;;;;6.25;3.78;;;;;;;;;;143734;621;47022;-62
2022/01/21 15:56:44;;;;;;;7.12;3.40;;;;;;;;;;143734;582;46010;-62
2022/01/21 15:59:11;;;;;;;11.45;4.85;;;;;;;;;;143735;571;45020;-62
2022/01/21 16:01:38;;;;;;;9.45;4.00;;;;;;;;;;143737;625;46010;-62
2022/01/21 16:04:05;;;;;;;10.45;4.10;;;;;;;;;;143733;613;47020;-61
2022/01/21 16:06:33;;;;;;;9.73;4.35;;;;;;;;;;143734;629;46010;-60
2022/01/21 16:09:00;;;;;;;9.80;4.00;;;;;;;;;;143733;677;45021;-61
2022/01/21 16:11:27;;;;;;;7.07;3.87;;;;;;;;;;143736;564;47010;-61